Time;durP1;ratioP1;P1;durP2;ratioP2;P2;SDS_P1;SDS_P2;PMS_P1;PMS_P2;Temp;Humidity;BMP_temperature;BMP_pressure;BME280_temperature;BME280_humidity;BME280_pressure;Samples;Min_cycle;Max_cycle;Signal;HPM_P1;HPM_P2
2023/08/15 00:00:50;;;;;;;6.50;6.03;;;20.30;84.20;;;;;;6239700;28;20643;-78
2023/08/15 00:03:53;;;;;;;6.10;5.60;;;20.30;84.80;;;;;;6232438;28;20239;-79
2023/08/15 00:06:57;;;;;;;6.03;5.63;;;20.30;85.00;;;;;;6231919;28;20224;-79
2023/08/15 00:10:00;;;;;;;6.27;5.73;;;20.30;85.20;;;;;;6239673;28;20735;-79
2023/08/15 00:13:04;;;;;;;7.57;6.60;;;20.30;85.50;;;;;;6240879;28;20313;-79
2023/08/15 00:16:07;;;;;;;6.10;5.70;;;20.30;85.60;;;;;;6224902;28;20277;-79
2023/08/15 00:19:11;;;;;;;6.13;5.83;;;20.30;85.80;;;;;;6231188;28;20241;-79
2023/08/15 00:22:15;;;;;;;6.67;6.03;;;20.30;85.70;;;;;;6199648;28;20761;-77
2023/08/15 00:25:19;;;;;;;6.17;5.70;;;20.40;85.80;;;;;;6222540;28;20855;-79
2023/08/15 00:28:23;;;;;;;6.73;6.23;;;20.40;85.90;;;;;;6216539;28;20374;-80
2023/08/15 00:31:26;;;;;;;5.80;5.40;;;20.50;85.90;;;;;;6226596;28;20286;-78
2023/08/15 00:34:29;;;;;;;8.30;7.70;;;20.50;85.70;;;;;;6228920;28;20235;-75
2023/08/15 00:37:32;;;;;;;7.17;6.63;;;20.50;85.80;;;;;;6204401;28;20247;-78
2023/08/15 00:40:38;;;;;;;7.37;6.87;;;20.50;85.70;;;;;;6222610;28;20240;-78
2023/08/15 00:43:43;;;;;;;5.40;5.00;;;20.60;85.80;;;;;;6186800;28;20342;-79
2023/08/15 00:46:46;;;;;;;4.03;3.77;;;20.60;85.40;;;;;;6208430;28;20269;-77
2023/08/15 00:49:51;;;;;;;4.30;4.10;;;20.50;85.00;;;;;;6228958;28;20742;-78
2023/08/15 00:52:55;;;;;;;3.90;3.60;;;20.40;85.00;;;;;;6217627;28;20837;-79
2023/08/15 00:55:59;;;;;;;4.20;4.10;;;20.40;85.30;;;;;;6230070;28;20265;-78
2023/08/15 00:59:04;;;;;;;4.17;3.93;;;20.30;85.00;;;;;;6216800;28;20255;-78
2023/08/15 01:02:07;;;;;;;4.00;3.80;;;20.10;85.60;;;;;;6196520;28;20235;-79
2023/08/15 01:05:10;;;;;;;3.93;3.80;;;20.00;85.80;;;;;;6239176;28;20369;-79
2023/08/15 01:08:13;;;;;;;4.50;4.30;;;20.10;85.80;;;;;;6214250;28;20327;-79
2023/08/15 01:11:17;;;;;;;5.00;4.53;;;20.10;86.00;;;;;;6219597;28;20770;-78
2023/08/15 01:14:28;;;;;;;4.77;4.33;;;20.00;86.20;;;;;;6221475;28;20239;-79
2023/08/15 01:17:36;;;;;;;3.97;3.60;;;20.00;86.30;;;;;;6199000;28;20235;-77
2023/08/15 01:20:40;;;;;;;3.67;3.47;;;20.00;86.20;;;;;;6226060;28;20302;-79
2023/08/15 01:23:45;;;;;;;5.70;3.47;;;20.00;85.90;;;;;;6235066;28;20812;-77
2023/08/15 01:26:48;;;;;;;4.13;3.87;;;20.00;85.90;;;;;;6235333;28;20897;-78
2023/08/15 01:29:51;;;;;;;3.63;3.53;;;20.00;85.80;;;;;;6232202;28;20263;-78
2023/08/15 01:33:01;;;;;;;3.10;2.97;;;20.00;85.80;;;;;;6230517;28;20329;-79
2023/08/15 01:36:10;;;;;;;3.20;3.10;;;20.00;85.70;;;;;;6237062;28;20226;-80
2023/08/15 01:39:18;;;;;;;3.17;2.97;;;20.00;85.70;;;;;;6237331;28;20266;-79
2023/08/15 01:42:23;;;;;;;3.47;3.17;;;20.00;85.60;;;;;;6223146;28;20258;-77
2023/08/15 01:45:28;;;;;;;4.50;3.33;;;20.00;85.70;;;;;;6223685;28;20249;-78
2023/08/15 01:48:31;;;;;;;3.77;3.67;;;20.00;85.70;;;;;;6238322;28;20243;-79
2023/08/15 01:51:34;;;;;;;3.40;3.20;;;20.00;85.60;;;;;;6236944;28;20313;-78
2023/08/15 01:54:38;;;;;;;4.07;3.30;;;20.00;85.70;;;;;;6221300;28;20838;-79
2023/08/15 01:57:42;;;;;;;2.90;2.80;;;20.00;85.70;;;;;;6238377;28;20270;-79
2023/08/15 02:00:46;;;;;;;3.03;3.00;;;20.00;85.70;;;;;;6234771;28;20425;-78
2023/08/15 02:03:49;;;;;;;3.37;3.20;;;20.00;85.80;;;;;;6228041;28;20546;-79
2023/08/15 02:06:52;;;;;;;3.43;3.33;;;20.00;85.80;;;;;;6237392;28;20373;-78
2023/08/15 02:09:57;;;;;;;3.40;3.20;;;20.00;85.80;;;;;;6229934;28;20269;-79
2023/08/15 02:13:00;;;;;;;3.80;3.60;;;20.00;85.70;;;;;;6236027;28;20928;-78
2023/08/15 02:16:03;;;;;;;3.27;3.17;;;19.90;85.80;;;;;;6237883;28;20238;-78
2023/08/15 02:19:07;;;;;;;3.47;3.33;;;19.90;85.80;;;;;;6228194;28;20380;-80
2023/08/15 02:22:10;;;;;;;3.40;3.20;;;19.90;85.80;;;;;;6237831;28;20231;-80
2023/08/15 02:25:16;;;;;;;3.13;3.10;;;19.90;85.80;;;;;;6237305;28;20324;-78
2023/08/15 02:28:19;;;;;;;2.70;2.70;;;19.80;85.90;;;;;;6228988;28;20267;-80
2023/08/15 02:31:22;;;;;;;3.37;3.27;;;19.70;85.90;;;;;;6233877;28;20300;-78
2023/08/15 02:34:25;;;;;;;3.23;3.23;;;19.70;85.90;;;;;;6221762;28;20338;-78
2023/08/15 02:37:28;;;;;;;3.37;3.30;;;19.70;85.90;;;;;;6222688;28;20231;-80
2023/08/15 02:40:33;;;;;;;3.40;3.30;;;19.70;85.90;;;;;;6237086;28;20273;-79
2023/08/15 02:43:36;;;;;;;3.30;3.20;;;19.60;86.00;;;;;;6231838;28;20234;-80
2023/08/15 02:46:39;;;;;;;3.47;3.37;;;19.60;85.90;;;;;;6220316;28;20259;-79
2023/08/15 02:49:42;;;;;;;3.43;3.23;;;19.50;86.00;;;;;;6218518;28;20247;-78
2023/08/15 02:52:46;;;;;;;3.60;3.50;;;19.50;86.10;;;;;;6226352;28;20245;-79
2023/08/15 02:55:52;;;;;;;3.33;3.23;;;19.50;86.10;;;;;;6233891;28;20766;-80
2023/08/15 02:58:56;;;;;;;3.20;3.10;;;19.50;86.10;;;;;;6232574;28;20732;-80
2023/08/15 03:01:59;;;;;;;3.43;3.33;;;19.50;86.20;;;;;;6212396;28;20790;-79
2023/08/15 03:05:03;;;;;;;4.10;3.90;;;19.50;86.20;;;;;;6236882;28;20242;-81
2023/08/15 03:08:06;;;;;;;4.23;4.03;;;19.40;86.10;;;;;;6232857;28;20254;-79
2023/08/15 03:11:11;;;;;;;3.90;3.80;;;19.40;86.20;;;;;;6228343;28;20227;-78
2023/08/15 03:14:14;;;;;;;3.37;3.27;;;19.40;86.30;;;;;;6219927;28;20325;-80
2023/08/15 03:17:18;;;;;;;3.60;3.50;;;19.40;86.20;;;;;;6237034;28;20324;-81
2023/08/15 03:20:22;;;;;;;3.90;3.73;;;19.30;86.30;;;;;;6217209;28;20239;-78
2023/08/15 03:23:25;;;;;;;4.07;3.90;;;19.30;86.30;;;;;;6232587;28;21024;-80
2023/08/15 03:26:30;;;;;;;3.70;3.60;;;19.30;86.30;;;;;;6236642;28;20317;-80
2023/08/15 03:29:35;;;;;;;3.53;3.43;;;19.30;86.30;;;;;;6229341;28;20234;-80
2023/08/15 03:32:38;;;;;;;3.57;3.47;;;19.20;86.50;;;;;;6219540;28;20301;-77
2023/08/15 03:35:45;;;;;;;3.97;3.83;;;19.30;86.50;;;;;;6232703;28;20242;-78
2023/08/15 03:38:48;;;;;;;3.93;3.63;;;19.30;86.50;;;;;;6240394;28;20316;-76
2023/08/15 03:41:52;;;;;;;4.47;4.37;;;19.30;86.50;;;;;;6235886;28;20242;-77
2023/08/15 03:44:55;;;;;;;4.57;4.43;;;19.20;86.60;;;;;;6231862;28;20261;-76
2023/08/15 03:47:59;;;;;;;6.53;6.20;;;19.20;86.60;;;;;;6239257;28;20321;-75
2023/08/15 03:51:04;;;;;;;6.57;6.17;;;19.20;86.70;;;;;;6230335;28;20227;-77
2023/08/15 03:54:08;;;;;;;5.53;5.23;;;19.30;86.80;;;;;;6227390;28;20230;-80
2023/08/15 03:57:12;;;;;;;6.90;6.30;;;19.30;86.70;;;;;;6234274;28;20230;-78
2023/08/15 04:00:19;;;;;;;6.93;6.37;;;19.30;86.80;;;;;;6234808;28;20242;-79
2023/08/15 04:03:24;;;;;;;6.17;5.67;;;19.30;86.80;;;;;;6236627;28;20762;-78
2023/08/15 04:06:28;;;;;;;5.50;5.13;;;19.30;86.90;;;;;;6228282;28;20316;-78
2023/08/15 04:09:31;;;;;;;5.87;5.57;;;19.30;86.90;;;;;;6235524;28;20235;-78
2023/08/15 04:12:35;;;;;;;7.00;6.47;;;19.30;87.00;;;;;;6236370;28;20308;-77
2023/08/15 04:15:39;;;;;;;9.90;8.80;;;19.30;87.10;;;;;;6231512;28;20308;-77
2023/08/15 04:18:42;;;;;;;7.50;6.90;;;19.30;87.20;;;;;;6234409;28;20317;-78
2023/08/15 04:21:46;;;;;;;8.67;8.07;;;19.30;87.20;;;;;;6235404;28;20249;-78
2023/08/15 04:24:49;;;;;;;8.53;7.93;;;19.40;87.20;;;;;;6237429;28;20334;-79
2023/08/15 04:27:54;;;;;;;7.20;6.77;;;19.40;87.20;;;;;;6230314;28;20235;-77
2023/08/15 04:30:57;;;;;;;7.67;7.07;;;19.40;87.30;;;;;;6241078;28;20277;-76
2023/08/15 04:34:00;;;;;;;8.23;7.63;;;19.50;87.30;;;;;;6236938;28;20242;-76
2023/08/15 04:37:03;;;;;;;10.20;9.33;;;19.50;87.20;;;;;;6244548;28;20246;-77
2023/08/15 04:40:12;;;;;;;11.97;9.60;;;19.50;87.20;;;;;;6241343;28;20280;-76
2023/08/15 04:43:17;;;;;;;8.93;8.30;;;19.50;87.10;;;;;;6236606;28;20246;-76
2023/08/15 04:46:21;;;;;;;9.10;7.87;;;19.50;87.20;;;;;;6227835;28;20247;-77
2023/08/15 04:49:24;;;;;;;8.00;7.60;;;19.50;87.10;;;;;;6238466;28;20242;-76
2023/08/15 04:52:27;;;;;;;10.03;9.30;;;19.50;87.10;;;;;;6237485;28;20320;-78
2023/08/15 04:55:30;;;;;;;8.97;8.37;;;19.50;87.10;;;;;;6238181;28;20317;-77
2023/08/15 04:58:34;;;;;;;9.20;8.60;;;19.50;87.10;;;;;;6236050;28;20246;-79
2023/08/15 05:01:37;;;;;;;10.47;9.67;;;19.50;87.10;;;;;;6236880;28;20245;-76
2023/08/15 05:04:41;;;;;;;11.00;10.20;;;19.50;87.10;;;;;;6231250;28;20253;-79
2023/08/15 05:07:44;;;;;;;9.00;8.40;;;19.60;87.10;;;;;;6235698;28;20328;-79
2023/08/15 05:10:47;;;;;;;10.23;9.40;;;19.70;87.20;;;;;;6239325;28;20742;-79
2023/08/15 05:13:52;;;;;;;10.93;10.13;;;19.70;87.10;;;;;;6229703;28;20282;-76
2023/08/15 05:16:55;;;;;;;8.20;7.70;;;19.70;87.10;;;;;;6237365;28;20247;-77
2023/08/15 05:19:58;;;;;;;10.40;9.47;;;19.70;87.20;;;;;;6226718;28;20313;-79
2023/08/15 05:23:01;;;;;;;8.90;8.20;;;19.90;87.10;;;;;;6224656;28;20635;-78
2023/08/15 05:26:04;;;;;;;8.10;7.70;;;19.90;87.10;;;;;;6212721;28;20270;-80
2023/08/15 05:29:09;;;;;;;10.73;9.83;;;20.00;87.00;;;;;;6219813;28;20243;-78
2023/08/15 05:32:12;;;;;;;9.40;8.70;;;19.90;86.80;;;;;;6222244;28;20242;-79
2023/08/15 05:35:15;;;;;;;9.57;8.97;;;20.00;86.90;;;;;;6220523;28;20238;-79
2023/08/15 05:38:18;;;;;;;10.57;9.03;;;20.00;86.70;;;;;;6211534;28;20234;-79
2023/08/15 05:41:21;;;;;;;8.90;8.30;;;20.20;86.50;;;;;;6187610;28;20259;-79
2023/08/15 05:44:27;;;;;;;9.43;8.77;;;20.30;86.30;;;;;;6206786;28;20227;-78
2023/08/15 05:47:30;;;;;;;8.83;8.30;;;20.50;85.90;;;;;;6210821;28;20271;-79
2023/08/15 05:50:33;;;;;;;9.87;8.97;;;20.50;86.00;;;;;;6209213;28;20251;-77
2023/08/15 05:53:36;;;;;;;8.83;8.23;;;20.70;86.10;;;;;;6215394;28;20235;-78
2023/08/15 05:56:40;;;;;;;8.90;8.03;;;20.90;85.70;;;;;;6226678;28;20239;-79
2023/08/15 05:59:44;;;;;;;8.03;7.53;;;21.00;84.80;;;;;;6218278;28;20243;-78
2023/08/15 06:02:48;;;;;;;7.77;7.20;;;21.10;84.70;;;;;;6194353;28;20239;-78
2023/08/15 06:05:51;;;;;;;6.40;5.90;;;21.40;84.60;;;;;;6214452;28;20246;-79
2023/08/15 06:08:55;;;;;;;6.57;6.10;;;21.50;84.60;;;;;;6209950;28;20266;-80
2023/08/15 06:11:58;;;;;;;8.83;6.60;;;21.70;84.10;;;;;;6216477;28;20242;-81
2023/08/15 06:15:03;;;;;;;7.17;6.70;;;21.90;83.30;;;;;;6217648;28;20755;-80
2023/08/15 06:18:08;;;;;;;7.27;6.77;;;21.90;82.70;;;;;;6224612;28;20266;-80
2023/08/15 06:21:11;;;;;;;6.63;6.10;;;22.00;82.60;;;;;;6237697;28;20643;-81
2023/08/15 06:24:17;;;;;;;7.27;6.77;;;22.30;83.00;;;;;;6235654;28;20271;-77
2023/08/15 06:27:20;;;;;;;7.83;7.33;;;22.30;81.50;;;;;;6233526;28;20770;-79
2023/08/15 06:30:25;;;;;;;8.13;7.50;;;22.50;81.10;;;;;;6235842;28;20238;-79
2023/08/15 06:33:28;;;;;;;7.27;6.77;;;22.50;79.40;;;;;;6236723;28;20364;-79
2023/08/15 06:36:32;;;;;;;6.90;6.37;;;22.60;80.70;;;;;;6236150;28;20245;-80
2023/08/15 06:39:35;;;;;;;6.77;5.90;;;22.60;79.60;;;;;;6237843;28;20831;-79
2023/08/15 06:42:38;;;;;;;6.90;6.37;;;22.80;79.80;;;;;;6218965;28;20234;-79
2023/08/15 06:45:43;;;;;;;7.40;6.80;;;22.90;79.60;;;;;;6232075;28;20331;-80
2023/08/15 06:48:46;;;;;;;6.83;6.53;;;23.10;79.10;;;;;;6236723;28;20278;-81
2023/08/15 06:51:52;;;;;;;7.03;6.47;;;23.20;78.50;;;;;;6234560;28;20231;-82
2023/08/15 06:54:55;;;;;;;7.13;6.47;;;23.20;78.00;;;;;;6234132;28;20238;-83
2023/08/15 06:57:58;;;;;;;6.37;5.87;;;23.30;78.60;;;;;;6228980;28;20242;-82
2023/08/15 07:01:05;;;;;;;6.77;6.30;;;23.20;78.50;;;;;;6237075;28;20246;-85
2023/08/15 07:04:09;;;;;;;5.83;5.43;;;23.30;77.90;;;;;;6219688;28;20438;-86
2023/08/15 07:07:12;;;;;;;6.13;5.73;;;23.30;77.10;;;;;;6221532;28;20242;-87
2023/08/15 07:10:16;;;;;;;6.30;6.03;;;23.50;78.20;;;;;;6236964;28;20239;-85
2023/08/15 07:13:19;;;;;;;6.30;5.90;;;23.60;77.40;;;;;;6236072;28;20637;-84
2023/08/15 07:16:24;;;;;;;6.27;5.83;;;23.70;76.80;;;;;;6228894;28;20836;-84
2023/08/15 07:19:27;;;;;;;7.07;6.43;;;23.60;77.20;;;;;;6224323;28;20386;-85
2023/08/15 07:22:30;;;;;;;6.53;6.13;;;23.80;76.00;;;;;;6213096;28;20242;-83
2023/08/15 07:25:37;;;;;;;6.07;5.60;;;24.00;76.30;;;;;;6220604;28;20309;-87
2023/08/15 07:28:40;;;;;;;5.80;5.40;;;24.00;76.00;;;;;;6225390;28;20246;-85
2023/08/15 07:31:45;;;;;;;6.60;6.03;;;24.10;76.50;;;;;;6230949;28;20241;-85
2023/08/15 07:34:49;;;;;;;5.60;5.17;;;24.00;76.80;;;;;;6214620;28;20377;-86
2023/08/15 07:37:54;;;;;;;7.20;5.97;;;24.00;76.60;;;;;;6211648;28;20402;-83
2023/08/15 07:40:57;;;;;;;5.23;5.13;;;23.90;75.70;;;;;;6204900;28;20281;-85
2023/08/15 07:44:03;;;;;;;6.23;5.33;;;24.00;76.20;;;;;;6223683;28;20305;-83
2023/08/15 07:47:09;;;;;;;6.47;6.03;;;24.10;75.50;;;;;;6219174;28;20390;-83
2023/08/15 07:50:14;;;;;;;5.77;5.50;;;24.10;75.50;;;;;;6208240;28;20250;-84
2023/08/15 07:53:17;;;;;;;5.93;5.50;;;24.20;74.10;;;;;;6226611;28;20317;-83
2023/08/15 07:56:21;;;;;;;5.80;5.53;;;24.20;74.30;;;;;;6215311;28;20239;-84
2023/08/15 07:59:24;;;;;;;5.90;5.63;;;24.20;75.20;;;;;;6220147;28;20254;-81
2023/08/15 08:02:29;;;;;;;5.90;5.70;;;24.20;75.20;;;;;;6224546;28;20226;-84
2023/08/15 08:05:32;;;;;;;5.90;5.60;;;24.10;75.50;;;;;;6214211;28;20249;-84
2023/08/15 08:08:36;;;;;;;5.80;5.57;;;24.20;75.90;;;;;;6230956;28;20231;-82
2023/08/15 08:11:39;;;;;;;7.70;7.20;;;24.30;76.10;;;;;;6216541;28;20308;-84
2023/08/15 08:14:42;;;;;;;7.07;6.70;;;24.40;75.90;;;;;;6226885;28;20644;-82
2023/08/15 08:18:00;;;;;;;6.27;6.07;;;24.50;75.60;;;;;;6223957;28;20244;-82
2023/08/15 08:21:05;;;;;;;7.23;6.70;;;24.40;74.50;;;;;;6241766;28;20230;-85
2023/08/15 08:24:11;;;;;;;8.17;7.67;;;24.60;73.50;;;;;;6257953;28;20241;-82
2023/08/15 08:27:14;;;;;;;6.93;6.60;;;24.70;73.00;;;;;;6234292;28;20246;-81
2023/08/15 08:30:18;;;;;;;6.80;6.50;;;24.80;72.30;;;;;;6254816;28;20243;-83
2023/08/15 08:33:23;;;;;;;7.17;6.83;;;25.00;71.30;;;;;;6242722;28;20656;-82
2023/08/15 08:36:26;;;;;;;7.97;7.60;;;25.00;71.40;;;;;;6241084;28;20223;-83
2023/08/15 08:39:29;;;;;;;7.30;7.00;;;25.00;70.20;;;;;;6240419;28;20234;-83
2023/08/15 08:42:35;;;;;;;8.33;7.73;;;25.00;69.60;;;;;;6242635;28;20361;-84
2023/08/15 08:45:41;;;;;;;6.80;6.50;;;25.00;70.20;;;;;;6237142;28;20253;-85
2023/08/15 08:48:47;;;;;;;7.63;7.10;;;25.30;70.50;;;;;;6239531;28;20238;-87
2023/08/15 08:51:52;;;;;;;9.30;8.63;;;25.40;70.00;;;;;;6239483;28;20909;-86
2023/08/15 08:54:55;;;;;;;8.17;7.63;;;25.50;68.90;;;;;;6240070;28;24744;-85
2023/08/15 08:58:02;;;;;;;7.73;7.33;;;25.50;69.30;;;;;;6241132;28;20246;-85
2023/08/15 09:01:06;;;;;;;7.90;7.60;;;25.70;69.30;;;;;;6238748;28;20246;-83
2023/08/15 09:04:11;;;;;;;8.80;8.17;;;25.80;68.90;;;;;;6237942;28;20233;-85
2023/08/15 09:07:14;;;;;;;9.83;8.97;;;25.80;68.70;;;;;;6240319;28;20751;-87
2023/08/15 09:10:18;;;;;;;8.23;7.60;;;25.90;67.90;;;;;;6239498;28;20724;-83
2023/08/15 09:13:22;;;;;;;8.73;8.13;;;25.90;68.50;;;;;;6240196;28;20238;-81
2023/08/15 09:16:25;;;;;;;9.37;8.30;;;26.00;68.30;;;;;;6222709;28;20236;-84
2023/08/15 09:19:30;;;;;;;9.17;8.63;;;26.10;68.00;;;;;;6220365;28;20230;-83
2023/08/15 09:22:33;;;;;;;7.63;7.23;;;26.30;68.10;;;;;;6240570;28;20231;-82
2023/08/15 09:25:37;;;;;;;7.83;7.33;;;26.50;67.70;;;;;;6239985;28;20369;-84
2023/08/15 09:28:41;;;;;;;8.10;7.60;;;26.90;67.40;;;;;;6224963;28;20239;-81
2023/08/15 09:31:44;;;;;;;8.90;8.30;;;27.00;66.20;;;;;;6236638;28;20296;-83
2023/08/15 09:34:49;;;;;;;7.10;6.57;;;26.90;66.70;;;;;;6237314;28;20242;-85
2023/08/15 09:37:53;;;;;;;8.67;7.87;;;27.00;66.40;;;;;;6230495;28;20767;-82
2023/08/15 09:40:57;;;;;;;8.60;7.80;;;27.20;66.10;;;;;;6241168;28;20247;-84
2023/08/15 09:44:01;;;;;;;7.97;7.50;;;27.40;65.00;;;;;;6242308;28;20868;-83
2023/08/15 09:47:06;;;;;;;8.93;8.33;;;27.60;64.70;;;;;;6240541;28;20510;-86
2023/08/15 09:50:12;;;;;;;8.50;8.03;;;27.80;64.70;;;;;;6231709;28;20242;-84
2023/08/15 09:53:16;;;;;;;10.10;8.97;;;27.90;64.30;;;;;;6212982;28;20237;-79
2023/08/15 09:56:21;;;;;;;8.37;7.73;;;27.70;64.40;;;;;;6240239;28;20242;-82
2023/08/15 09:59:24;;;;;;;9.47;8.67;;;27.70;64.30;;;;;;6221339;28;20814;-84
2023/08/15 10:02:29;;;;;;;8.50;7.80;;;28.00;63.90;;;;;;6238770;28;20329;-84
2023/08/15 10:05:36;;;;;;;9.07;8.57;;;28.20;63.40;;;;;;6237571;28;20230;-81
2023/08/15 10:08:40;;;;;;;8.47;7.97;;;28.10;63.80;;;;;;6238691;28;20254;-85
2023/08/15 10:11:46;;;;;;;11.00;9.40;;;28.10;63.60;;;;;;6238916;28;20230;-85
2023/08/15 10:14:50;;;;;;;7.43;7.03;;;28.30;63.80;;;;;;6239098;28;20238;-84
2023/08/15 10:17:53;;;;;;;8.27;7.87;;;28.30;64.00;;;;;;6238239;28;20242;-83
2023/08/15 10:20:58;;;;;;;8.30;7.50;;;28.00;63.50;;;;;;6237900;28;20855;-85
2023/08/15 10:24:04;;;;;;;8.37;7.67;;;28.00;64.00;;;;;;6235713;28;20246;-84
2023/08/15 10:27:11;;;;;;;8.97;8.53;;;28.10;64.40;;;;;;6233665;28;20381;-84
2023/08/15 10:30:28;;;;;;;8.27;7.88;;;28.10;63.70;;;;;;6227988;28;20624;-83
2023/08/15 10:33:32;;;;;;;9.32;8.75;;;28.20;64.40;;;;;;6231315;28;20235;-85
2023/08/15 10:36:41;;;;;;;8.40;7.82;;;28.10;63.60;;;;;;6232034;28;20246;-85
2023/08/15 10:39:44;;;;;;;7.93;7.57;;;28.10;63.50;;;;;;6237358;28;20250;-83
2023/08/15 10:43:07;;;;;;;8.32;7.82;;;28.10;64.00;;;;;;6237832;28;20242;-83
2023/08/15 10:46:11;;;;;;;8.77;7.95;;;28.10;64.80;;;;;;6238598;28;20242;-86
2023/08/15 10:49:14;;;;;;;9.55;9.00;;;28.00;64.20;;;;;;6229360;28;20250;-84
2023/08/15 10:52:19;;;;;;;8.95;8.35;;;28.00;64.70;;;;;;6222706;28;20242;-83
2023/08/15 10:55:27;;;;;;;9.52;9.05;;;28.00;64.80;;;;;;6236567;28;20258;-79
2023/08/15 10:58:31;;;;;;;9.52;9.05;;;28.10;64.30;;;;;;6235975;28;20238;-85
2023/08/15 11:01:36;;;;;;;9.02;8.32;;;28.10;64.10;;;;;;6227327;28;20743;-81
2023/08/15 11:04:40;;;;;;;9.10;8.23;;;28.30;62.90;;;;;;6227518;28;20281;-83
2023/08/15 11:07:46;;;;;;;8.82;8.27;;;28.30;62.90;;;;;;6235774;28;20322;-83
2023/08/15 11:10:50;;;;;;;8.67;8.03;;;28.40;63.00;;;;;;6227796;28;20234;-80
2023/08/15 11:13:55;;;;;;;14.70;8.88;;;28.40;62.30;;;;;;6235447;28;20230;-84
2023/08/15 11:16:59;;;;;;;8.77;8.02;;;28.50;62.40;;;;;;6237882;28;20257;-83
2023/08/15 11:20:04;;;;;;;8.27;7.68;;;28.50;62.60;;;;;;6223662;28;20727;-82
2023/08/15 11:23:09;;;;;;;7.63;7.20;;;28.60;63.00;;;;;;6205162;28;20605;-81
2023/08/15 11:26:14;;;;;;;8.73;8.15;;;28.90;63.20;;;;;;6215105;28;20329;-81
2023/08/15 11:29:17;;;;;;;8.45;7.80;;;29.00;61.60;;;;;;6226743;28;20875;-81
2023/08/15 11:32:24;;;;;;;7.80;7.40;;;29.10;61.20;;;;;;6225175;28;20741;-82
2023/08/15 11:35:27;;;;;;;7.70;7.20;;;29.20;61.60;;;;;;6236234;28;20275;-83
2023/08/15 11:38:32;;;;;;;8.35;7.70;;;29.30;61.10;;;;;;6207379;28;20859;-82
2023/08/15 11:41:36;;;;;;;7.85;7.30;;;29.40;60.70;;;;;;6217181;28;20337;-82
2023/08/15 11:44:39;;;;;;;9.95;9.13;;;29.50;60.80;;;;;;6226295;28;20925;-81
2023/08/15 11:47:56;;;;;;;8.07;7.38;;;29.50;60.60;;;;;;6221502;28;20328;-82
2023/08/15 11:51:00;;;;;;;9.10;8.43;;;29.50;60.50;;;;;;6210233;28;20235;-83
2023/08/15 11:54:05;;;;;;;8.02;7.53;;;29.60;60.80;;;;;;6222713;28;20389;-81
2023/08/15 11:57:09;;;;;;;10.32;8.27;;;29.70;60.50;;;;;;6202077;28;20741;-82
2023/08/15 12:00:15;;;;;;;7.55;7.20;;;29.70;59.50;;;;;;6225750;28;20883;-86
2023/08/15 12:03:19;;;;;;;6.85;6.35;;;29.70;59.20;;;;;;6218262;28;20227;-81
2023/08/15 12:06:22;;;;;;;7.10;6.47;;;29.70;58.50;;;;;;6220700;28;20246;-78
2023/08/15 12:09:28;;;;;;;7.43;6.70;;;29.70;58.40;;;;;;6219018;28;20657;-82
2023/08/15 12:12:39;;;;;;;6.47;6.07;;;29.70;58.90;;;;;;6222789;28;20393;-84
2023/08/15 12:15:42;;;;;;;6.50;6.10;;;29.70;59.40;;;;;;6203243;28;20797;-84
2023/08/15 12:18:45;;;;;;;8.02;6.30;;;29.90;58.30;;;;;;6223628;28;20284;-83
2023/08/15 12:21:49;;;;;;;6.65;6.20;;;29.80;58.70;;;;;;6219162;28;20311;-83
2023/08/15 12:24:56;;;;;;;6.07;5.78;;;29.80;57.80;;;;;;6219658;28;20834;-83
2023/08/15 12:27:59;;;;;;;6.65;6.32;;;29.90;58.50;;;;;;6226995;28;20254;-82
2023/08/15 12:31:02;;;;;;;6.10;5.70;;;30.00;57.40;;;;;;6212443;28;20251;-83
2023/08/15 12:34:05;;;;;;;7.32;6.60;;;29.90;57.40;;;;;;6212414;28;20235;-81
2023/08/15 12:37:09;;;;;;;5.90;5.35;;;29.90;58.20;;;;;;6194914;28;20732;-85
2023/08/15 12:40:14;;;;;;;6.07;5.63;;;30.10;57.50;;;;;;6192700;28;20555;-81
2023/08/15 12:43:33;;;;;;;7.22;6.00;;;30.30;57.00;;;;;;6213529;28;20248;-86
2023/08/15 12:46:36;;;;;;;7.97;7.30;;;30.30;56.70;;;;;;6216865;28;20245;-85
2023/08/15 12:49:39;;;;;;;8.30;6.47;;;30.30;57.90;;;;;;6217578;28;20243;-83
2023/08/15 12:52:42;;;;;;;6.80;6.20;;;30.30;57.90;;;;;;6240729;28;20717;-82
2023/08/15 12:55:47;;;;;;;8.43;6.55;;;30.30;57.60;;;;;;6217068;28;20490;-85
2023/08/15 12:58:50;;;;;;;6.88;6.57;;;30.50;57.80;;;;;;6212218;28;20236;-82
2023/08/15 13:01:54;;;;;;;6.50;6.03;;;30.60;57.30;;;;;;6208799;28;20235;-81
2023/08/15 13:04:57;;;;;;;6.28;5.97;;;30.60;57.00;;;;;;6213102;28;20238;-82
2023/08/15 13:08:01;;;;;;;6.45;5.85;;;30.70;56.30;;;;;;6220237;28;20235;-86
2023/08/15 13:11:06;;;;;;;5.90;5.50;;;30.70;56.10;;;;;;6213725;28;20269;-82
2023/08/15 13:14:09;;;;;;;6.40;5.93;;;30.60;55.50;;;;;;6218459;28;20310;-86
2023/08/15 13:17:13;;;;;;;6.00;5.45;;;30.50;56.10;;;;;;6217335;28;20875;-85
2023/08/15 13:20:16;;;;;;;6.85;6.20;;;30.50;56.60;;;;;;6234184;28;20741;-88
2023/08/15 13:23:21;;;;;;;7.57;7.10;;;30.50;57.10;;;;;;6203614;28;20239;-84
2023/08/15 13:26:26;;;;;;;6.55;6.15;;;30.50;57.10;;;;;;6219790;28;20736;-82
2023/08/15 13:29:29;;;;;;;6.82;6.43;;;30.50;57.20;;;;;;6229973;28;20872;-86
2023/08/15 13:32:32;;;;;;;7.45;6.47;;;30.60;57.00;;;;;;6222976;28;20314;-82
2023/08/15 13:35:35;;;;;;;6.57;6.10;;;30.70;57.00;;;;;;6221443;28;20243;-84
2023/08/15 13:38:39;;;;;;;6.60;6.03;;;30.90;56.10;;;;;;6222540;28;20266;-85
2023/08/15 13:41:44;;;;;;;5.28;5.05;;;30.80;56.10;;;;;;6218471;28;20235;-84
2023/08/15 13:44:47;;;;;;;4.57;4.20;;;30.90;54.50;;;;;;6205492;28;20237;-81
2023/08/15 13:47:50;;;;;;;5.13;4.82;;;30.90;53.20;;;;;;6212330;28;21050;-82
2023/08/15 13:50:54;;;;;;;4.78;4.57;;;31.00;53.70;;;;;;6224904;28;20242;-82
2023/08/15 13:53:57;;;;;;;5.68;5.28;;;31.00;54.20;;;;;;6228648;28;20680;-81
2023/08/15 13:57:01;;;;;;;3.67;3.45;;;31.00;55.30;;;;;;6223764;28;20238;-84
2023/08/15 14:00:07;;;;;;;4.18;3.97;;;30.80;52.10;;;;;;6222905;28;20266;-82
2023/08/15 14:03:10;;;;;;;4.07;3.97;;;30.80;52.10;;;;;;6223589;28;20231;-85
2023/08/15 14:06:13;;;;;;;4.22;4.03;;;30.90;52.80;;;;;;6222832;28;20765;-84
2023/08/15 14:09:17;;;;;;;4.57;4.30;;;31.00;52.60;;;;;;6220871;28;20269;-83
2023/08/15 14:12:24;;;;;;;5.25;4.80;;;31.00;52.60;;;;;;6229103;28;20235;-83
2023/08/15 14:15:28;;;;;;;4.60;4.20;;;31.10;53.60;;;;;;6237005;28;20245;-83
2023/08/15 14:18:32;;;;;;;4.45;4.05;;;31.10;52.60;;;;;;6229407;28;20739;-83
2023/08/15 14:21:35;;;;;;;4.15;3.95;;;31.10;52.50;;;;;;6244589;28;20254;-84
2023/08/15 14:24:45;;;;;;;4.35;4.15;;;31.00;52.60;;;;;;6242983;28;20262;-86
2023/08/15 14:27:49;;;;;;;4.55;4.35;;;31.10;52.70;;;;;;6241978;28;20434;-86
2023/08/15 14:30:52;;;;;;;5.07;4.75;;;31.20;53.30;;;;;;6239043;28;20242;-86
2023/08/15 14:33:56;;;;;;;4.43;4.32;;;31.10;53.40;;;;;;6240123;28;21812;-86
2023/08/15 14:36:59;;;;;;;4.65;4.47;;;31.20;52.80;;;;;;6239346;28;20237;-86
2023/08/15 14:40:02;;;;;;;4.38;4.20;;;31.30;53.00;;;;;;6237018;28;20311;-85
2023/08/15 14:43:08;;;;;;;4.80;4.43;;;31.40;52.00;;;;;;6231682;28;20351;-83
2023/08/15 14:46:11;;;;;;;4.90;4.43;;;31.20;52.40;;;;;;6232338;28;20254;-85
2023/08/15 14:49:14;;;;;;;4.60;4.40;;;31.20;52.20;;;;;;6237463;28;20244;-87
2023/08/15 14:52:18;;;;;;;4.50;4.30;;;31.30;52.10;;;;;;6242252;28;20237;-86
2023/08/15 14:55:21;;;;;;;4.72;4.43;;;31.30;51.80;;;;;;6234928;28;20234;-87
2023/08/15 14:58:25;;;;;;;5.32;4.85;;;31.40;51.80;;;;;;6242504;28;20234;-85
2023/08/15 15:01:31;;;;;;;4.65;4.35;;;31.50;51.80;;;;;;6239412;28;20312;-84
2023/08/15 15:04:34;;;;;;;4.03;3.92;;;31.50;52.70;;;;;;6239236;28;20250;-82
2023/08/15 15:07:37;;;;;;;4.55;4.25;;;31.50;52.90;;;;;;6238027;28;21051;-87
2023/08/15 15:10:40;;;;;;;4.50;4.25;;;31.60;52.20;;;;;;6236442;28;20239;-84
2023/08/15 15:13:45;;;;;;;5.47;5.10;;;31.20;53.00;;;;;;6238128;28;20304;-81
2023/08/15 15:16:50;;;;;;;5.05;4.65;;;31.10;53.10;;;;;;6232337;28;21530;-80
2023/08/15 15:19:53;;;;;;;5.68;5.22;;;30.90;53.80;;;;;;6259315;28;20258;-78
2023/08/15 15:22:57;;;;;;;4.15;4.05;;;30.80;53.20;;;;;;6251448;28;20436;-79
2023/08/15 15:26:00;;;;;;;5.32;4.93;;;30.80;53.80;;;;;;6258222;28;20227;-76
2023/08/15 15:29:04;;;;;;;4.22;4.13;;;30.90;54.30;;;;;;6244508;28;20283;-75
2023/08/15 15:32:08;;;;;;;4.85;4.45;;;31.10;54.70;;;;;;6253599;28;20226;-79
2023/08/15 15:35:11;;;;;;;4.00;3.80;;;31.10;53.60;;;;;;6243516;28;20214;-81
2023/08/15 15:38:14;;;;;;;4.40;4.30;;;31.20;53.50;;;;;;6242899;28;20230;-79
2023/08/15 15:41:17;;;;;;;4.88;4.55;;;31.30;53.70;;;;;;6256053;28;20245;-80
2023/08/15 15:44:22;;;;;;;4.60;4.45;;;31.30;54.10;;;;;;6257626;28;20225;-81
2023/08/15 15:47:25;;;;;;;5.80;5.32;;;31.20;54.20;;;;;;6249292;28;20508;-79
2023/08/15 15:50:28;;;;;;;4.65;4.55;;;31.20;54.50;;;;;;6245546;28;20239;-79
2023/08/15 15:53:33;;;;;;;4.80;4.50;;;31.10;54.50;;;;;;6253616;28;20240;-79
2023/08/15 15:56:36;;;;;;;4.55;4.38;;;31.00;54.80;;;;;;6249196;28;20250;-81